METAR Data
IDs: Format: Raw Decoded Include TAF

Data at: 1016 UTC 18 Jan 2022

EGPH 180950Z 22008KT 9999 FEW009 SCT021 05/04 Q1032